sensor_id;sensor_type;location;lat;lon;timestamp;temperature;humidity
56771;DHT22;42641;59.794;17.616;2023-07-29T00:01:55;13.50;99.90
56771;DHT22;42641;59.794;17.616;2023-07-29T00:04:21;13.50;99.90
56771;DHT22;42641;59.794;17.616;2023-07-29T00:06:48;13.50;99.90
56771;DHT22;42641;59.794;17.616;2023-07-29T00:09:14;13.40;99.90
56771;DHT22;42641;59.794;17.616;2023-07-29T00:11:40;13.40;99.90
56771;DHT22;42641;59.794;17.616;2023-07-29T00:14:07;13.40;99.90
56771;DHT22;42641;59.794;17.616;2023-07-29T00:16:33;13.50;99.90
56771;DHT22;42641;59.794;17.616;2023-07-29T00:19:02;13.50;99.90
56771;DHT22;42641;59.794;17.616;2023-07-29T00:21:28;13.40;99.90
56771;DHT22;42641;59.794;17.616;2023-07-29T00:23:55;13.40;99.90
56771;DHT22;42641;59.794;17.616;2023-07-29T00:26:23;13.40;99.90
56771;DHT22;42641;59.794;17.616;2023-07-29T00:28:52;13.40;99.90
56771;DHT22;42641;59.794;17.616;2023-07-29T00:31:18;13.30;99.90
56771;DHT22;42641;59.794;17.616;2023-07-29T00:33:45;13.30;99.90
56771;DHT22;42641;59.794;17.616;2023-07-29T00:36:11;13.30;99.90
56771;DHT22;42641;59.794;17.616;2023-07-29T00:38:38;13.30;99.90
56771;DHT22;42641;59.794;17.616;2023-07-29T00:41:05;13.30;99.90
56771;DHT22;42641;59.794;17.616;2023-07-29T00:43:31;13.30;99.90
56771;DHT22;42641;59.794;17.616;2023-07-29T00:45:57;13.30;99.90
56771;DHT22;42641;59.794;17.616;2023-07-29T00:48:26;13.30;99.90
56771;DHT22;42641;59.794;17.616;2023-07-29T00:50:53;13.20;99.90
56771;DHT22;42641;59.794;17.616;2023-07-29T00:53:20;13.30;99.90
56771;DHT22;42641;59.794;17.616;2023-07-29T00:55:46;13.30;99.90
56771;DHT22;42641;59.794;17.616;2023-07-29T00:58:15;13.20;99.90
56771;DHT22;42641;59.794;17.616;2023-07-29T01:00:41;13.20;99.90
56771;DHT22;42641;59.794;17.616;2023-07-29T01:03:08;13.20;99.90
56771;DHT22;42641;59.794;17.616;2023-07-29T01:06:12;13.20;99.90
56771;DHT22;42641;59.794;17.616;2023-07-29T01:09:06;13.30;99.90
56771;DHT22;42641;59.794;17.616;2023-07-29T01:14:28;13.20;99.90
56771;DHT22;42641;59.794;17.616;2023-07-29T01:17:04;13.20;99.90
56771;DHT22;42641;59.794;17.616;2023-07-29T01:19:55;13.20;99.90
56771;DHT22;42641;59.794;17.616;2023-07-29T01:22:26;13.20;99.90
56771;DHT22;42641;59.794;17.616;2023-07-29T01:24:53;13.10;99.90
56771;DHT22;42641;59.794;17.616;2023-07-29T01:27:19;13.10;99.90
56771;DHT22;42641;59.794;17.616;2023-07-29T01:29:46;13.10;99.90
56771;DHT22;42641;59.794;17.616;2023-07-29T01:32:22;13.10;99.90
56771;DHT22;42641;59.794;17.616;2023-07-29T01:37:25;13.10;99.90
56771;DHT22;42641;59.794;17.616;2023-07-29T01:39:55;13.10;99.90
56771;DHT22;42641;59.794;17.616;2023-07-29T01:42:23;13.10;99.90
56771;DHT22;42641;59.794;17.616;2023-07-29T01:44:50;13.10;99.90
56771;DHT22;42641;59.794;17.616;2023-07-29T01:47:17;13.00;99.90
56771;DHT22;42641;59.794;17.616;2023-07-29T01:49:43;13.00;99.90
56771;DHT22;42641;59.794;17.616;2023-07-29T01:52:10;13.00;99.90
56771;DHT22;42641;59.794;17.616;2023-07-29T01:54:37;13.10;99.90
56771;DHT22;42641;59.794;17.616;2023-07-29T01:57:03;13.00;99.90
56771;DHT22;42641;59.794;17.616;2023-07-29T01:59:30;13.00;99.90
56771;DHT22;42641;59.794;17.616;2023-07-29T02:01:56;12.90;99.90
56771;DHT22;42641;59.794;17.616;2023-07-29T02:04:22;12.90;99.90
56771;DHT22;42641;59.794;17.616;2023-07-29T02:06:49;12.90;99.90
56771;DHT22;42641;59.794;17.616;2023-07-29T02:09:15;12.90;99.90
56771;DHT22;42641;59.794;17.616;2023-07-29T02:11:42;12.90;99.90
56771;DHT22;42641;59.794;17.616;2023-07-29T02:14:08;12.90;99.90
56771;DHT22;42641;59.794;17.616;2023-07-29T02:16:35;12.90;99.90
56771;DHT22;42641;59.794;17.616;2023-07-29T02:19:02;12.90;99.90
56771;DHT22;42641;59.794;17.616;2023-07-29T02:21:29;12.90;99.90
56771;DHT22;42641;59.794;17.616;2023-07-29T02:23:57;12.90;99.90
56771;DHT22;42641;59.794;17.616;2023-07-29T02:26:24;12.80;99.90
56771;DHT22;42641;59.794;17.616;2023-07-29T02:28:50;12.80;99.90
56771;DHT22;42641;59.794;17.616;2023-07-29T02:31:24;12.80;99.90
56771;DHT22;42641;59.794;17.616;2023-07-29T02:33:51;12.80;99.90
56771;DHT22;42641;59.794;17.616;2023-07-29T02:36:19;12.80;99.90
56771;DHT22;42641;59.794;17.616;2023-07-29T02:38:45;12.80;99.90
56771;DHT22;42641;59.794;17.616;2023-07-29T02:41:12;12.80;99.90
56771;DHT22;42641;59.794;17.616;2023-07-29T02:43:39;12.80;99.90
56771;DHT22;42641;59.794;17.616;2023-07-29T02:46:07;12.80;99.90
56771;DHT22;42641;59.794;17.616;2023-07-29T02:48:33;12.80;99.90
56771;DHT22;42641;59.794;17.616;2023-07-29T02:51:00;12.80;99.90
56771;DHT22;42641;59.794;17.616;2023-07-29T02:53:26;12.80;99.90
56771;DHT22;42641;59.794;17.616;2023-07-29T02:55:53;12.80;99.90
56771;DHT22;42641;59.794;17.616;2023-07-29T02:58:20;12.80;99.90
56771;DHT22;42641;59.794;17.616;2023-07-29T03:00:47;12.80;99.90
56771;DHT22;42641;59.794;17.616;2023-07-29T03:03:14;12.80;99.90
56771;DHT22;42641;59.794;17.616;2023-07-29T03:05:41;12.70;99.90
56771;DHT22;42641;59.794;17.616;2023-07-29T03:08:07;12.80;99.90
56771;DHT22;42641;59.794;17.616;2023-07-29T03:10:35;12.80;99.90
56771;DHT22;42641;59.794;17.616;2023-07-29T03:13:05;12.80;99.90
56771;DHT22;42641;59.794;17.616;2023-07-29T03:15:31;12.80;99.90
56771;DHT22;42641;59.794;17.616;2023-07-29T03:18:00;12.80;99.90
56771;DHT22;42641;59.794;17.616;2023-07-29T03:20:26;12.80;99.90
56771;DHT22;42641;59.794;17.616;2023-07-29T03:22:53;12.80;99.90
56771;DHT22;42641;59.794;17.616;2023-07-29T03:25:19;12.80;99.90
56771;DHT22;42641;59.794;17.616;2023-07-29T03:27:46;12.80;99.90
56771;DHT22;42641;59.794;17.616;2023-07-29T03:30:15;12.70;99.90
56771;DHT22;42641;59.794;17.616;2023-07-29T03:32:45;12.80;99.90
56771;DHT22;42641;59.794;17.616;2023-07-29T03:35:12;12.80;99.90
56771;DHT22;42641;59.794;17.616;2023-07-29T03:37:39;12.90;99.90
56771;DHT22;42641;59.794;17.616;2023-07-29T03:40:06;12.90;99.90
56771;DHT22;42641;59.794;17.616;2023-07-29T03:42:33;12.90;99.90
56771;DHT22;42641;59.794;17.616;2023-07-29T03:44:59;12.90;99.90
56771;DHT22;42641;59.794;17.616;2023-07-29T03:47:26;12.90;99.90
56771;DHT22;42641;59.794;17.616;2023-07-29T03:49:53;12.90;99.90
56771;DHT22;42641;59.794;17.616;2023-07-29T03:52:22;13.00;99.90
56771;DHT22;42641;59.794;17.616;2023-07-29T03:54:48;13.00;99.90
56771;DHT22;42641;59.794;17.616;2023-07-29T03:57:15;13.10;99.90
56771;DHT22;42641;59.794;17.616;2023-07-29T03:59:41;13.10;99.90
56771;DHT22;42641;59.794;17.616;2023-07-29T04:02:08;13.00;99.90
56771;DHT22;42641;59.794;17.616;2023-07-29T04:04:34;13.10;99.90
56771;DHT22;42641;59.794;17.616;2023-07-29T04:07:00;13.10;99.90
56771;DHT22;42641;59.794;17.616;2023-07-29T04:09:27;13.20;99.90
56771;DHT22;42641;59.794;17.616;2023-07-29T04:11:53;13.20;99.90
56771;DHT22;42641;59.794;17.616;2023-07-29T04:14:20;13.30;99.90
56771;DHT22;42641;59.794;17.616;2023-07-29T04:16:46;13.30;99.90
56771;DHT22;42641;59.794;17.616;2023-07-29T04:19:13;13.40;99.90
56771;DHT22;42641;59.794;17.616;2023-07-29T04:21:39;13.40;99.90
56771;DHT22;42641;59.794;17.616;2023-07-29T04:24:06;13.40;99.90
56771;DHT22;42641;59.794;17.616;2023-07-29T04:26:32;13.50;99.90
56771;DHT22;42641;59.794;17.616;2023-07-29T04:28:58;13.60;99.90
56771;DHT22;42641;59.794;17.616;2023-07-29T04:31:25;13.60;99.90
56771;DHT22;42641;59.794;17.616;2023-07-29T04:33:52;13.60;99.90
56771;DHT22;42641;59.794;17.616;2023-07-29T04:36:18;13.70;99.90
56771;DHT22;42641;59.794;17.616;2023-07-29T04:38:45;13.80;99.90
56771;DHT22;42641;59.794;17.616;2023-07-29T04:41:12;13.90;99.90
56771;DHT22;42641;59.794;17.616;2023-07-29T04:43:38;13.90;99.90
56771;DHT22;42641;59.794;17.616;2023-07-29T04:46:08;14.00;99.90
56771;DHT22;42641;59.794;17.616;2023-07-29T04:48:34;14.10;99.90
56771;DHT22;42641;59.794;17.616;2023-07-29T04:51:01;14.20;99.90
56771;DHT22;42641;59.794;17.616;2023-07-29T04:53:27;14.20;99.90
56771;DHT22;42641;59.794;17.616;2023-07-29T04:55:54;14.30;99.90
56771;DHT22;42641;59.794;17.616;2023-07-29T04:58:20;14.40;99.90
56771;DHT22;42641;59.794;17.616;2023-07-29T05:00:47;14.50;99.90
56771;DHT22;42641;59.794;17.616;2023-07-29T05:03:13;14.60;99.90
56771;DHT22;42641;59.794;17.616;2023-07-29T05:05:40;14.70;99.90
56771;DHT22;42641;59.794;17.616;2023-07-29T05:08:06;14.70;99.90
56771;DHT22;42641;59.794;17.616;2023-07-29T05:10:34;14.80;99.90
56771;DHT22;42641;59.794;17.616;2023-07-29T05:13:01;14.90;99.90
56771;DHT22;42641;59.794;17.616;2023-07-29T05:15:27;14.90;99.90
56771;DHT22;42641;59.794;17.616;2023-07-29T05:17:55;15.00;99.90
56771;DHT22;42641;59.794;17.616;2023-07-29T05:20:22;15.10;99.90
56771;DHT22;42641;59.794;17.616;2023-07-29T05:22:48;15.20;99.90
56771;DHT22;42641;59.794;17.616;2023-07-29T05:25:15;15.20;99.90
56771;DHT22;42641;59.794;17.616;2023-07-29T05:27:41;15.30;99.90
56771;DHT22;42641;59.794;17.616;2023-07-29T05:30:08;15.40;99.90
56771;DHT22;42641;59.794;17.616;2023-07-29T05:32:35;15.50;99.90
56771;DHT22;42641;59.794;17.616;2023-07-29T05:35:01;15.60;99.90
56771;DHT22;42641;59.794;17.616;2023-07-29T05:37:27;15.60;99.90
56771;DHT22;42641;59.794;17.616;2023-07-29T05:39:56;15.70;99.90
56771;DHT22;42641;59.794;17.616;2023-07-29T05:42:23;15.80;99.90
56771;DHT22;42641;59.794;17.616;2023-07-29T05:44:50;15.90;99.90
56771;DHT22;42641;59.794;17.616;2023-07-29T05:47:19;15.90;99.90
56771;DHT22;42641;59.794;17.616;2023-07-29T05:49:46;16.00;99.90
56771;DHT22;42641;59.794;17.616;2023-07-29T05:52:12;16.00;99.90
56771;DHT22;42641;59.794;17.616;2023-07-29T05:54:39;16.10;99.90
56771;DHT22;42641;59.794;17.616;2023-07-29T05:57:06;16.30;99.90
56771;DHT22;42641;59.794;17.616;2023-07-29T05:59:32;16.30;99.90
56771;DHT22;42641;59.794;17.616;2023-07-29T06:01:59;16.30;99.90
56771;DHT22;42641;59.794;17.616;2023-07-29T06:04:25;16.40;99.90
56771;DHT22;42641;59.794;17.616;2023-07-29T06:06:52;16.50;99.90
56771;DHT22;42641;59.794;17.616;2023-07-29T06:09:18;16.60;99.90
56771;DHT22;42641;59.794;17.616;2023-07-29T06:11:45;16.60;99.90
56771;DHT22;42641;59.794;17.616;2023-07-29T06:14:11;16.70;99.90
56771;DHT22;42641;59.794;17.616;2023-07-29T06:16:38;16.80;99.90
56771;DHT22;42641;59.794;17.616;2023-07-29T06:19:04;16.90;99.90
56771;DHT22;42641;59.794;17.616;2023-07-29T06:21:31;17.00;99.90
56771;DHT22;42641;59.794;17.616;2023-07-29T06:23:57;17.10;99.90
56771;DHT22;42641;59.794;17.616;2023-07-29T06:26:24;17.10;99.90
56771;DHT22;42641;59.794;17.616;2023-07-29T06:28:50;17.20;99.90
56771;DHT22;42641;59.794;17.616;2023-07-29T06:31:17;17.30;99.90
56771;DHT22;42641;59.794;17.616;2023-07-29T06:33:43;17.40;99.90
56771;DHT22;42641;59.794;17.616;2023-07-29T06:36:10;17.50;99.90
56771;DHT22;42641;59.794;17.616;2023-07-29T06:38:36;17.50;99.90
56771;DHT22;42641;59.794;17.616;2023-07-29T06:41:04;17.60;99.90
56771;DHT22;42641;59.794;17.616;2023-07-29T06:43:31;17.60;99.90
56771;DHT22;42641;59.794;17.616;2023-07-29T06:45:58;17.80;99.90
56771;DHT22;42641;59.794;17.616;2023-07-29T06:48:24;17.80;99.90
56771;DHT22;42641;59.794;17.616;2023-07-29T06:50:51;17.80;99.90
56771;DHT22;42641;59.794;17.616;2023-07-29T06:53:18;18.00;99.90
56771;DHT22;42641;59.794;17.616;2023-07-29T06:55:44;18.00;99.90
56771;DHT22;42641;59.794;17.616;2023-07-29T06:58:11;18.10;99.90
56771;DHT22;42641;59.794;17.616;2023-07-29T07:00:37;18.30;99.90
56771;DHT22;42641;59.794;17.616;2023-07-29T07:03:04;18.40;99.90
56771;DHT22;42641;59.794;17.616;2023-07-29T07:05:30;18.40;99.90
56771;DHT22;42641;59.794;17.616;2023-07-29T07:07:56;18.50;99.90
56771;DHT22;42641;59.794;17.616;2023-07-29T07:10:23;18.50;99.90
56771;DHT22;42641;59.794;17.616;2023-07-29T07:12:49;18.60;99.90
56771;DHT22;42641;59.794;17.616;2023-07-29T07:15:16;18.70;99.90
56771;DHT22;42641;59.794;17.616;2023-07-29T07:17:42;18.80;99.90
56771;DHT22;42641;59.794;17.616;2023-07-29T07:20:09;19.00;99.90
56771;DHT22;42641;59.794;17.616;2023-07-29T07:22:36;19.10;99.90
56771;DHT22;42641;59.794;17.616;2023-07-29T07:25:02;19.20;99.90
56771;DHT22;42641;59.794;17.616;2023-07-29T07:27:29;19.30;99.90
56771;DHT22;42641;59.794;17.616;2023-07-29T07:29:55;19.30;99.90
56771;DHT22;42641;59.794;17.616;2023-07-29T07:32:22;19.30;99.90
56771;DHT22;42641;59.794;17.616;2023-07-29T07:34:48;19.40;99.90
56771;DHT22;42641;59.794;17.616;2023-07-29T07:37:15;19.50;99.90
56771;DHT22;42641;59.794;17.616;2023-07-29T07:39:41;19.60;99.90
56771;DHT22;42641;59.794;17.616;2023-07-29T07:42:08;19.80;99.90
56771;DHT22;42641;59.794;17.616;2023-07-29T07:44:34;19.90;99.90
56771;DHT22;42641;59.794;17.616;2023-07-29T07:47:01;19.90;99.90
56771;DHT22;42641;59.794;17.616;2023-07-29T07:49:27;19.90;99.90
56771;DHT22;42641;59.794;17.616;2023-07-29T07:51:53;20.00;99.90
56771;DHT22;42641;59.794;17.616;2023-07-29T07:54:20;20.00;99.90
56771;DHT22;42641;59.794;17.616;2023-07-29T07:56:46;20.10;99.90
56771;DHT22;42641;59.794;17.616;2023-07-29T07:59:13;20.30;99.90
56771;DHT22;42641;59.794;17.616;2023-07-29T08:01:39;20.60;99.90
56771;DHT22;42641;59.794;17.616;2023-07-29T08:04:06;20.70;99.90
56771;DHT22;42641;59.794;17.616;2023-07-29T08:06:33;20.80;99.90
56771;DHT22;42641;59.794;17.616;2023-07-29T08:09:00;20.80;99.90
56771;DHT22;42641;59.794;17.616;2023-07-29T08:11:26;20.90;99.90
56771;DHT22;42641;59.794;17.616;2023-07-29T08:13:53;21.00;99.90
56771;DHT22;42641;59.794;17.616;2023-07-29T08:16:19;21.00;99.90
56771;DHT22;42641;59.794;17.616;2023-07-29T08:18:46;21.10;99.90
56771;DHT22;42641;59.794;17.616;2023-07-29T08:21:13;21.20;99.90
56771;DHT22;42641;59.794;17.616;2023-07-29T08:23:40;21.30;99.90
56771;DHT22;42641;59.794;17.616;2023-07-29T08:26:06;21.40;99.90
56771;DHT22;42641;59.794;17.616;2023-07-29T08:28:37;21.50;99.90
56771;DHT22;42641;59.794;17.616;2023-07-29T08:31:05;21.70;99.90
56771;DHT22;42641;59.794;17.616;2023-07-29T08:33:32;21.90;99.90
56771;DHT22;42641;59.794;17.616;2023-07-29T08:36:02;22.00;99.90
56771;DHT22;42641;59.794;17.616;2023-07-29T08:38:29;22.10;99.90
56771;DHT22;42641;59.794;17.616;2023-07-29T08:41:16;22.10;99.90
56771;DHT22;42641;59.794;17.616;2023-07-29T08:44:12;22.30;99.90
56771;DHT22;42641;59.794;17.616;2023-07-29T08:46:42;22.40;99.90
56771;DHT22;42641;59.794;17.616;2023-07-29T08:49:11;22.50;99.90
56771;DHT22;42641;59.794;17.616;2023-07-29T08:51:38;22.50;99.90
56771;DHT22;42641;59.794;17.616;2023-07-29T08:54:05;22.70;99.90
56771;DHT22;42641;59.794;17.616;2023-07-29T08:56:32;22.80;99.90
56771;DHT22;42641;59.794;17.616;2023-07-29T08:58:58;22.90;99.90
56771;DHT22;42641;59.794;17.616;2023-07-29T09:01:26;23.00;99.90
56771;DHT22;42641;59.794;17.616;2023-07-29T09:03:53;23.00;99.90
56771;DHT22;42641;59.794;17.616;2023-07-29T09:06:20;23.10;99.90
56771;DHT22;42641;59.794;17.616;2023-07-29T09:08:49;23.20;99.90
56771;DHT22;42641;59.794;17.616;2023-07-29T09:11:17;23.30;99.90
56771;DHT22;42641;59.794;17.616;2023-07-29T09:13:43;23.40;99.90
56771;DHT22;42641;59.794;17.616;2023-07-29T09:16:10;23.40;99.90
56771;DHT22;42641;59.794;17.616;2023-07-29T09:18:37;23.60;99.90
56771;DHT22;42641;59.794;17.616;2023-07-29T09:21:03;23.80;99.90
56771;DHT22;42641;59.794;17.616;2023-07-29T09:23:43;23.90;99.90
56771;DHT22;42641;59.794;17.616;2023-07-29T09:26:11;24.00;99.90
56771;DHT22;42641;59.794;17.616;2023-07-29T09:28:39;24.20;99.90
56771;DHT22;42641;59.794;17.616;2023-07-29T09:31:06;24.30;99.90
56771;DHT22;42641;59.794;17.616;2023-07-29T09:33:34;24.30;99.90
56771;DHT22;42641;59.794;17.616;2023-07-29T09:36:08;24.20;99.90
56771;DHT22;42641;59.794;17.616;2023-07-29T09:38:35;24.30;99.90
56771;DHT22;42641;59.794;17.616;2023-07-29T09:41:02;24.30;99.90
56771;DHT22;42641;59.794;17.616;2023-07-29T09:43:33;24.40;99.90
56771;DHT22;42641;59.794;17.616;2023-07-29T09:46:04;24.40;99.90
56771;DHT22;42641;59.794;17.616;2023-07-29T09:48:38;24.30;99.90
56771;DHT22;42641;59.794;17.616;2023-07-29T09:51:14;24.50;99.90
56771;DHT22;42641;59.794;17.616;2023-07-29T09:53:46;24.70;99.90
56771;DHT22;42641;59.794;17.616;2023-07-29T09:56:13;24.70;99.90
56771;DHT22;42641;59.794;17.616;2023-07-29T09:58:43;24.80;99.90
56771;DHT22;42641;59.794;17.616;2023-07-29T10:01:10;25.00;99.90
56771;DHT22;42641;59.794;17.616;2023-07-29T10:03:37;25.20;99.90
56771;DHT22;42641;59.794;17.616;2023-07-29T10:06:06;25.40;99.90
56771;DHT22;42641;59.794;17.616;2023-07-29T10:08:34;25.60;99.90
56771;DHT22;42641;59.794;17.616;2023-07-29T10:11:07;25.50;99.90
56771;DHT22;42641;59.794;17.616;2023-07-29T10:13:34;25.60;99.90
56771;DHT22;42641;59.794;17.616;2023-07-29T10:16:02;25.50;99.90
56771;DHT22;42641;59.794;17.616;2023-07-29T10:18:29;25.80;99.90
56771;DHT22;42641;59.794;17.616;2023-07-29T10:20:58;25.90;99.90
56771;DHT22;42641;59.794;17.616;2023-07-29T10:23:26;26.20;99.90
56771;DHT22;42641;59.794;17.616;2023-07-29T10:26:04;26.30;99.40
56771;DHT22;42641;59.794;17.616;2023-07-29T10:28:32;26.30;99.90
56771;DHT22;42641;59.794;17.616;2023-07-29T10:30:59;26.40;97.90
56771;DHT22;42641;59.794;17.616;2023-07-29T10:33:26;26.20;97.90
56771;DHT22;42641;59.794;17.616;2023-07-29T10:35:53;26.30;99.90
56771;DHT22;42641;59.794;17.616;2023-07-29T10:38:23;26.50;99.40
56771;DHT22;42641;59.794;17.616;2023-07-29T10:40:53;26.50;97.30
56771;DHT22;42641;59.794;17.616;2023-07-29T10:43:34;26.40;97.10
56771;DHT22;42641;59.794;17.616;2023-07-29T10:46:36;26.30;97.40
56771;DHT22;42641;59.794;17.616;2023-07-29T10:49:03;26.30;98.70
56771;DHT22;42641;59.794;17.616;2023-07-29T10:51:31;26.50;96.60
56771;DHT22;42641;59.794;17.616;2023-07-29T10:54:09;26.60;97.20
56771;DHT22;42641;59.794;17.616;2023-07-29T10:56:37;26.90;97.10
56771;DHT22;42641;59.794;17.616;2023-07-29T11:01:42;27.20;96.60
56771;DHT22;42641;59.794;17.616;2023-07-29T11:15:06;27.40;94.50
56771;DHT22;42641;59.794;17.616;2023-07-29T11:17:45;27.30;94.80
56771;DHT22;42641;59.794;17.616;2023-07-29T11:20:13;27.00;93.90
56771;DHT22;42641;59.794;17.616;2023-07-29T11:22:40;27.90;93.30
56771;DHT22;42641;59.794;17.616;2023-07-29T11:25:15;29.00;93.60
56771;DHT22;42641;59.794;17.616;2023-07-29T11:27:42;30.30;94.00
56771;DHT22;42641;59.794;17.616;2023-07-29T11:30:10;30.90;88.30
56771;DHT22;42641;59.794;17.616;2023-07-29T11:32:38;30.60;88.10
56771;DHT22;42641;59.794;17.616;2023-07-29T11:35:16;30.40;90.40
56771;DHT22;42641;59.794;17.616;2023-07-29T11:37:44;30.60;85.60
56771;DHT22;42641;59.794;17.616;2023-07-29T11:40:16;31.20;86.50
56771;DHT22;42641;59.794;17.616;2023-07-29T11:42:43;31.50;87.30
56771;DHT22;42641;59.794;17.616;2023-07-29T11:45:09;31.90;83.30
56771;DHT22;42641;59.794;17.616;2023-07-29T11:47:37;31.40;81.20
56771;DHT22;42641;59.794;17.616;2023-07-29T11:50:05;31.40;80.00
56771;DHT22;42641;59.794;17.616;2023-07-29T11:52:33;31.70;80.80
56771;DHT22;42641;59.794;17.616;2023-07-29T11:55:01;32.50;78.70
56771;DHT22;42641;59.794;17.616;2023-07-29T11:57:30;33.10;77.20
56771;DHT22;42641;59.794;17.616;2023-07-29T11:59:57;33.20;72.50
56771;DHT22;42641;59.794;17.616;2023-07-29T12:02:24;32.30;72.50
56771;DHT22;42641;59.794;17.616;2023-07-29T12:04:52;30.90;75.20
56771;DHT22;42641;59.794;17.616;2023-07-29T12:07:19;29.90;80.40
56771;DHT22;42641;59.794;17.616;2023-07-29T12:09:47;30.10;78.90
56771;DHT22;42641;59.794;17.616;2023-07-29T12:12:14;31.20;79.90
56771;DHT22;42641;59.794;17.616;2023-07-29T12:14:45;31.60;75.10
56771;DHT22;42641;59.794;17.616;2023-07-29T12:17:13;31.00;78.70
56771;DHT22;42641;59.794;17.616;2023-07-29T12:19:40;30.00;80.10
56771;DHT22;42641;59.794;17.616;2023-07-29T12:22:08;29.40;79.60
56771;DHT22;42641;59.794;17.616;2023-07-29T12:24:40;28.80;82.80
56771;DHT22;42641;59.794;17.616;2023-07-29T12:27:11;28.70;83.10
56771;DHT22;42641;59.794;17.616;2023-07-29T12:29:42;28.50;83.70
56771;DHT22;42641;59.794;17.616;2023-07-29T12:32:10;28.20;83.50
56771;DHT22;42641;59.794;17.616;2023-07-29T12:34:38;28.80;82.50
56771;DHT22;42641;59.794;17.616;2023-07-29T12:37:06;29.90;79.90
56771;DHT22;42641;59.794;17.616;2023-07-29T12:39:35;31.00;82.00
56771;DHT22;42641;59.794;17.616;2023-07-29T12:42:03;31.90;77.30
56771;DHT22;42641;59.794;17.616;2023-07-29T12:44:31;32.60;78.80
56771;DHT22;42641;59.794;17.616;2023-07-29T12:47:03;31.70;78.50
56771;DHT22;42641;59.794;17.616;2023-07-29T12:49:30;30.60;81.50
56771;DHT22;42641;59.794;17.616;2023-07-29T12:51:57;29.40;82.50
56771;DHT22;42641;59.794;17.616;2023-07-29T12:54:24;28.90;84.30
56771;DHT22;42641;59.794;17.616;2023-07-29T12:56:51;28.20;85.10
56771;DHT22;42641;59.794;17.616;2023-07-29T12:59:18;27.80;86.10
56771;DHT22;42641;59.794;17.616;2023-07-29T13:01:44;28.80;85.50
56771;DHT22;42641;59.794;17.616;2023-07-29T13:04:11;29.80;85.30
56771;DHT22;42641;59.794;17.616;2023-07-29T13:06:38;30.80;81.70
56771;DHT22;42641;59.794;17.616;2023-07-29T13:09:04;31.70;80.50
56771;DHT22;42641;59.794;17.616;2023-07-29T13:11:32;32.30;79.60
56771;DHT22;42641;59.794;17.616;2023-07-29T13:13:59;32.50;79.00
56771;DHT22;42641;59.794;17.616;2023-07-29T13:16:27;31.70;77.70
56771;DHT22;42641;59.794;17.616;2023-07-29T13:18:54;30.80;82.20
56771;DHT22;42641;59.794;17.616;2023-07-29T13:21:20;30.80;80.70
56771;DHT22;42641;59.794;17.616;2023-07-29T13:23:47;30.50;80.80
56771;DHT22;42641;59.794;17.616;2023-07-29T13:26:13;30.80;81.10
56771;DHT22;42641;59.794;17.616;2023-07-29T13:28:40;31.70;78.50
56771;DHT22;42641;59.794;17.616;2023-07-29T13:31:06;32.30;78.20
56771;DHT22;42641;59.794;17.616;2023-07-29T13:33:33;32.70;77.20
56771;DHT22;42641;59.794;17.616;2023-07-29T13:36:01;33.60;75.00
56771;DHT22;42641;59.794;17.616;2023-07-29T13:38:29;33.90;73.00
56771;DHT22;42641;59.794;17.616;2023-07-29T13:40:58;33.70;74.30
56771;DHT22;42641;59.794;17.616;2023-07-29T13:43:25;33.90;71.00
56771;DHT22;42641;59.794;17.616;2023-07-29T13:45:51;34.00;68.50
56771;DHT22;42641;59.794;17.616;2023-07-29T13:48:18;34.10;71.60
56771;DHT22;42641;59.794;17.616;2023-07-29T13:50:45;34.10;71.00
56771;DHT22;42641;59.794;17.616;2023-07-29T13:53:11;34.30;68.00
56771;DHT22;42641;59.794;17.616;2023-07-29T13:55:38;34.50;71.80
56771;DHT22;42641;59.794;17.616;2023-07-29T13:58:04;34.60;70.50
56771;DHT22;42641;59.794;17.616;2023-07-29T14:00:31;33.60;70.40
56771;DHT22;42641;59.794;17.616;2023-07-29T14:02:57;32.80;69.30
56771;DHT22;42641;59.794;17.616;2023-07-29T14:05:24;32.10;73.40
56771;DHT22;42641;59.794;17.616;2023-07-29T14:07:50;31.20;75.10
56771;DHT22;42641;59.794;17.616;2023-07-29T14:10:17;30.50;75.40
56771;DHT22;42641;59.794;17.616;2023-07-29T14:12:43;31.30;78.80
56771;DHT22;42641;59.794;17.616;2023-07-29T14:15:10;32.10;74.20
56771;DHT22;42641;59.794;17.616;2023-07-29T14:17:36;32.40;77.00
56771;DHT22;42641;59.794;17.616;2023-07-29T14:20:03;33.10;71.20
56771;DHT22;42641;59.794;17.616;2023-07-29T14:22:31;33.80;74.00
56771;DHT22;42641;59.794;17.616;2023-07-29T14:24:57;34.40;72.90
56771;DHT22;42641;59.794;17.616;2023-07-29T14:27:24;34.70;70.00
56771;DHT22;42641;59.794;17.616;2023-07-29T14:29:50;35.10;71.20
56771;DHT22;42641;59.794;17.616;2023-07-29T14:32:16;34.90;70.30
56771;DHT22;42641;59.794;17.616;2023-07-29T14:34:43;34.80;69.70
56771;DHT22;42641;59.794;17.616;2023-07-29T14:37:09;34.30;71.50
56771;DHT22;42641;59.794;17.616;2023-07-29T14:39:36;34.50;71.90
56771;DHT22;42641;59.794;17.616;2023-07-29T14:42:02;34.60;71.00
56771;DHT22;42641;59.794;17.616;2023-07-29T14:44:29;34.50;70.60
56771;DHT22;42641;59.794;17.616;2023-07-29T14:46:56;34.60;69.70
56771;DHT22;42641;59.794;17.616;2023-07-29T14:49:22;34.10;68.80
56771;DHT22;42641;59.794;17.616;2023-07-29T14:51:49;33.90;73.90
56771;DHT22;42641;59.794;17.616;2023-07-29T14:54:15;34.10;73.50
56771;DHT22;42641;59.794;17.616;2023-07-29T14:56:42;34.40;69.90
56771;DHT22;42641;59.794;17.616;2023-07-29T14:59:08;34.90;71.90
56771;DHT22;42641;59.794;17.616;2023-07-29T15:01:35;35.20;67.10
56771;DHT22;42641;59.794;17.616;2023-07-29T15:04:01;34.80;67.90
56771;DHT22;42641;59.794;17.616;2023-07-29T15:06:28;35.00;66.50
56771;DHT22;42641;59.794;17.616;2023-07-29T15:08:54;34.70;65.00
56771;DHT22;42641;59.794;17.616;2023-07-29T15:11:21;35.20;66.70
56771;DHT22;42641;59.794;17.616;2023-07-29T15:13:48;35.80;65.10
56771;DHT22;42641;59.794;17.616;2023-07-29T15:16:15;35.70;66.60
56771;DHT22;42641;59.794;17.616;2023-07-29T15:18:41;36.00;64.90
56771;DHT22;42641;59.794;17.616;2023-07-29T15:21:08;36.20;64.40
56771;DHT22;42641;59.794;17.616;2023-07-29T15:23:35;36.60;64.60
56771;DHT22;42641;59.794;17.616;2023-07-29T15:26:02;36.50;61.10
56771;DHT22;42641;59.794;17.616;2023-07-29T15:28:28;36.40;60.70
56771;DHT22;42641;59.794;17.616;2023-07-29T15:30:55;36.70;60.70
56771;DHT22;42641;59.794;17.616;2023-07-29T15:33:22;36.60;62.60
56771;DHT22;42641;59.794;17.616;2023-07-29T15:35:51;36.60;60.40
56771;DHT22;42641;59.794;17.616;2023-07-29T15:38:18;36.40;61.20